sensor_id;sensor_type;location;lat;lon;timestamp;pressure;altitude;pressure_sealevel;temperature;humidity
58975;BME280;44751;52.236;5.178;2022-12-05T00:03:51;101727.31;;;2.64;100.00
58975;BME280;44751;52.236;5.178;2022-12-05T00:06:18;101731.16;;;2.73;100.00
58975;BME280;44751;52.236;5.178;2022-12-05T00:08:46;101728.25;;;2.76;100.00
58975;BME280;44751;52.236;5.178;2022-12-05T00:11:18;101717.59;;;2.76;100.00
58975;BME280;44751;52.236;5.178;2022-12-05T00:13:48;101718.16;;;2.81;100.00
58975;BME280;44751;52.236;5.178;2022-12-05T00:16:17;101719.13;;;2.67;100.00
58975;BME280;44751;52.236;5.178;2022-12-05T00:18:45;101725.84;;;2.73;100.00
58975;BME280;44751;52.236;5.178;2022-12-05T00:21:24;101723.38;;;2.83;100.00
58975;BME280;44751;52.236;5.178;2022-12-05T00:23:52;101727.75;;;2.84;100.00
58975;BME280;44751;52.236;5.178;2022-12-05T00:26:19;101726.34;;;2.78;100.00
58975;BME280;44751;52.236;5.178;2022-12-05T00:28:47;101730.09;;;2.76;100.00
58975;BME280;44751;52.236;5.178;2022-12-05T00:31:16;101723.91;;;2.75;100.00
58975;BME280;44751;52.236;5.178;2022-12-05T00:33:44;101726.16;;;2.81;100.00
58975;BME280;44751;52.236;5.178;2022-12-05T00:36:14;101722.31;;;2.86;100.00
58975;BME280;44751;52.236;5.178;2022-12-05T00:38:41;101729.66;;;2.82;100.00
58975;BME280;44751;52.236;5.178;2022-12-05T00:41:12;101723.69;;;2.91;100.00
58975;BME280;44751;52.236;5.178;2022-12-05T00:43:40;101729.47;;;2.98;100.00
58975;BME280;44751;52.236;5.178;2022-12-05T00:46:09;101735.09;;;2.93;100.00
58975;BME280;44751;52.236;5.178;2022-12-05T00:48:38;101735.44;;;2.89;100.00
58975;BME280;44751;52.236;5.178;2022-12-05T00:51:13;101740.44;;;2.93;100.00
58975;BME280;44751;52.236;5.178;2022-12-05T00:53:40;101730.72;;;2.92;100.00
58975;BME280;44751;52.236;5.178;2022-12-05T00:56:13;101729.75;;;2.93;100.00
58975;BME280;44751;52.236;5.178;2022-12-05T00:58:40;101734.47;;;2.90;100.00
58975;BME280;44751;52.236;5.178;2022-12-05T01:01:15;101733.41;;;2.92;100.00
58975;BME280;44751;52.236;5.178;2022-12-05T01:03:43;101739.59;;;2.93;100.00
58975;BME280;44751;52.236;5.178;2022-12-05T01:06:12;101731.03;;;2.88;100.00
58975;BME280;44751;52.236;5.178;2022-12-05T01:08:42;101733.81;;;2.86;100.00
58975;BME280;44751;52.236;5.178;2022-12-05T01:11:09;101733.50;;;2.91;100.00
58975;BME280;44751;52.236;5.178;2022-12-05T01:13:36;101738.72;;;2.92;100.00
58975;BME280;44751;52.236;5.178;2022-12-05T01:16:03;101730.63;;;3.07;100.00
58975;BME280;44751;52.236;5.178;2022-12-05T01:18:30;101717.50;;;2.91;100.00
58975;BME280;44751;52.236;5.178;2022-12-05T01:21:03;101723.06;;;3.01;100.00
58975;BME280;44751;52.236;5.178;2022-12-05T01:23:30;101724.22;;;2.96;100.00
58975;BME280;44751;52.236;5.178;2022-12-05T01:25:56;101733.28;;;2.94;100.00
58975;BME280;44751;52.236;5.178;2022-12-05T01:28:23;101727.63;;;2.99;100.00
58975;BME280;44751;52.236;5.178;2022-12-05T01:30:52;101734.56;;;2.88;100.00
58975;BME280;44751;52.236;5.178;2022-12-05T01:33:19;101735.41;;;3.02;100.00
58975;BME280;44751;52.236;5.178;2022-12-05T01:35:45;101736.06;;;2.92;100.00
58975;BME280;44751;52.236;5.178;2022-12-05T01:38:12;101728.47;;;2.86;100.00
58975;BME280;44751;52.236;5.178;2022-12-05T01:40:39;101742.13;;;2.94;100.00
58975;BME280;44751;52.236;5.178;2022-12-05T01:43:23;101744.25;;;2.89;100.00
58975;BME280;44751;52.236;5.178;2022-12-05T01:45:50;101743.19;;;2.92;100.00
58975;BME280;44751;52.236;5.178;2022-12-05T01:48:24;101741.50;;;2.91;100.00
58975;BME280;44751;52.236;5.178;2022-12-05T01:50:52;101742.38;;;2.91;100.00
58975;BME280;44751;52.236;5.178;2022-12-05T01:53:19;101746.63;;;2.94;100.00
58975;BME280;44751;52.236;5.178;2022-12-05T01:55:47;101740.53;;;2.92;100.00
58975;BME280;44751;52.236;5.178;2022-12-05T01:58:15;101745.75;;;2.93;100.00
58975;BME280;44751;52.236;5.178;2022-12-05T02:00:42;101737.53;;;2.83;100.00
58975;BME280;44751;52.236;5.178;2022-12-05T02:03:15;101745.75;;;2.80;100.00
58975;BME280;44751;52.236;5.178;2022-12-05T02:05:43;101739.78;;;2.77;100.00
58975;BME280;44751;52.236;5.178;2022-12-05T02:08:11;101749.47;;;2.78;100.00
58975;BME280;44751;52.236;5.178;2022-12-05T02:10:47;101735.75;;;2.84;100.00
58975;BME280;44751;52.236;5.178;2022-12-05T02:15:45;101741.94;;;2.84;100.00
58975;BME280;44751;52.236;5.178;2022-12-05T02:24:26;101743.94;;;2.81;100.00
58975;BME280;44751;52.236;5.178;2022-12-05T02:27:05;101740.09;;;2.85;100.00
58975;BME280;44751;52.236;5.178;2022-12-05T02:32:41;101737.13;;;2.90;100.00
58975;BME280;44751;52.236;5.178;2022-12-05T02:35:56;101729.88;;;2.79;100.00
58975;BME280;44751;52.236;5.178;2022-12-05T02:41:15;101739.28;;;2.84;100.00
58975;BME280;44751;52.236;5.178;2022-12-05T02:44:17;101741.09;;;2.97;100.00
58975;BME280;44751;52.236;5.178;2022-12-05T02:46:46;101726.03;;;2.96;100.00
58975;BME280;44751;52.236;5.178;2022-12-05T02:49:22;101747.78;;;2.90;100.00
58975;BME280;44751;52.236;5.178;2022-12-05T02:51:57;101742.13;;;2.94;100.00
58975;BME280;44751;52.236;5.178;2022-12-05T02:54:28;101735.31;;;3.03;100.00
58975;BME280;44751;52.236;5.178;2022-12-05T02:56:58;101740.94;;;2.99;100.00
58975;BME280;44751;52.236;5.178;2022-12-05T02:59:27;101735.84;;;2.95;100.00
58975;BME280;44751;52.236;5.178;2022-12-05T03:01:53;101734.13;;;2.94;100.00
58975;BME280;44751;52.236;5.178;2022-12-05T03:04:22;101735.50;;;3.00;100.00
58975;BME280;44751;52.236;5.178;2022-12-05T03:06:55;101736.59;;;3.10;100.00
58975;BME280;44751;52.236;5.178;2022-12-05T03:14:46;101743.97;;;3.07;100.00
58975;BME280;44751;52.236;5.178;2022-12-05T03:17:17;101737.56;;;3.09;100.00
58975;BME280;44751;52.236;5.178;2022-12-05T03:22:43;101742.78;;;3.11;100.00
58975;BME280;44751;52.236;5.178;2022-12-05T03:25:13;101739.97;;;3.13;100.00
58975;BME280;44751;52.236;5.178;2022-12-05T03:28:18;101742.13;;;3.20;100.00
58975;BME280;44751;52.236;5.178;2022-12-05T03:30:42;101737.66;;;3.21;100.00
58975;BME280;44751;52.236;5.178;2022-12-05T03:33:14;101740.53;;;3.18;100.00
58975;BME280;44751;52.236;5.178;2022-12-05T03:38:39;101739.88;;;3.14;100.00
58975;BME280;44751;52.236;5.178;2022-12-05T03:41:24;101748.63;;;3.29;100.00
58975;BME280;44751;52.236;5.178;2022-12-05T03:44:00;101759.72;;;3.23;100.00
58975;BME280;44751;52.236;5.178;2022-12-05T03:46:36;101750.53;;;3.14;100.00
58975;BME280;44751;52.236;5.178;2022-12-05T03:51:57;101747.47;;;3.20;100.00
58975;BME280;44751;52.236;5.178;2022-12-05T03:54:55;101755.16;;;3.25;100.00
58975;BME280;44751;52.236;5.178;2022-12-05T03:57:30;101750.31;;;3.30;100.00
58975;BME280;44751;52.236;5.178;2022-12-05T04:05:47;101759.72;;;3.36;100.00
58975;BME280;44751;52.236;5.178;2022-12-05T04:08:20;101756.06;;;3.37;100.00
58975;BME280;44751;52.236;5.178;2022-12-05T04:10:50;101754.03;;;3.41;100.00
58975;BME280;44751;52.236;5.178;2022-12-05T04:13:25;101764.69;;;3.41;100.00
58975;BME280;44751;52.236;5.178;2022-12-05T04:16:03;101765.34;;;3.44;100.00
58975;BME280;44751;52.236;5.178;2022-12-05T04:18:55;101762.47;;;3.47;100.00
58975;BME280;44751;52.236;5.178;2022-12-05T04:21:28;101760.34;;;3.40;100.00
58975;BME280;44751;52.236;5.178;2022-12-05T04:24:26;101766.94;;;3.47;100.00
58975;BME280;44751;52.236;5.178;2022-12-05T04:27:22;101765.75;;;3.51;100.00
58975;BME280;44751;52.236;5.178;2022-12-05T04:32:31;101762.41;;;3.60;100.00
58975;BME280;44751;52.236;5.178;2022-12-05T04:35:03;101752.00;;;3.44;100.00
58975;BME280;44751;52.236;5.178;2022-12-05T04:37:31;101756.25;;;3.60;100.00
58975;BME280;44751;52.236;5.178;2022-12-05T04:40:08;101749.63;;;3.53;100.00
58975;BME280;44751;52.236;5.178;2022-12-05T04:42:37;101747.69;;;3.55;100.00
58975;BME280;44751;52.236;5.178;2022-12-05T04:45:09;101762.22;;;3.51;100.00
58975;BME280;44751;52.236;5.178;2022-12-05T04:47:41;101757.31;;;3.57;100.00
58975;BME280;44751;52.236;5.178;2022-12-05T04:50:11;101748.06;;;3.74;100.00
58975;BME280;44751;52.236;5.178;2022-12-05T04:52:40;101756.13;;;3.61;100.00
58975;BME280;44751;52.236;5.178;2022-12-05T04:55:12;101765.53;;;3.67;100.00
58975;BME280;44751;52.236;5.178;2022-12-05T04:58:15;101763.38;;;3.72;100.00
58975;BME280;44751;52.236;5.178;2022-12-05T05:01:04;101757.50;;;3.67;100.00
58975;BME280;44751;52.236;5.178;2022-12-05T05:06:03;101761.72;;;3.83;100.00
58975;BME280;44751;52.236;5.178;2022-12-05T05:08:30;101755.47;;;3.71;100.00
58975;BME280;44751;52.236;5.178;2022-12-05T05:11:11;101755.75;;;3.79;100.00
58975;BME280;44751;52.236;5.178;2022-12-05T05:13:38;101758.09;;;3.84;100.00
58975;BME280;44751;52.236;5.178;2022-12-05T05:16:05;101759.28;;;3.80;100.00
58975;BME280;44751;52.236;5.178;2022-12-05T05:18:32;101762.47;;;3.85;100.00
58975;BME280;44751;52.236;5.178;2022-12-05T05:20:59;101763.84;;;3.91;100.00
58975;BME280;44751;52.236;5.178;2022-12-05T05:23:25;101761.66;;;3.96;100.00
58975;BME280;44751;52.236;5.178;2022-12-05T05:25:55;101760.41;;;3.88;100.00
58975;BME280;44751;52.236;5.178;2022-12-05T05:28:22;101755.75;;;3.79;100.00
58975;BME280;44751;52.236;5.178;2022-12-05T05:30:48;101756.91;;;3.88;100.00
58975;BME280;44751;52.236;5.178;2022-12-05T05:33:15;101761.59;;;3.84;100.00
58975;BME280;44751;52.236;5.178;2022-12-05T05:35:41;101759.03;;;3.83;100.00
58975;BME280;44751;52.236;5.178;2022-12-05T05:38:08;101761.16;;;3.91;100.00
58975;BME280;44751;52.236;5.178;2022-12-05T05:40:36;101761.88;;;3.93;100.00
58975;BME280;44751;52.236;5.178;2022-12-05T05:43:03;101765.53;;;3.92;100.00
58975;BME280;44751;52.236;5.178;2022-12-05T05:45:29;101767.97;;;3.95;100.00
58975;BME280;44751;52.236;5.178;2022-12-05T05:47:56;101769.91;;;3.93;100.00
58975;BME280;44751;52.236;5.178;2022-12-05T05:50:25;101765.44;;;3.93;100.00
58975;BME280;44751;52.236;5.178;2022-12-05T05:52:51;101767.34;;;3.91;100.00
58975;BME280;44751;52.236;5.178;2022-12-05T05:55:18;101775.41;;;4.03;100.00
58975;BME280;44751;52.236;5.178;2022-12-05T05:57:45;101761.94;;;4.04;100.00
58975;BME280;44751;52.236;5.178;2022-12-05T06:00:14;101761.34;;;4.00;100.00
58975;BME280;44751;52.236;5.178;2022-12-05T06:02:43;101772.41;;;4.07;100.00
58975;BME280;44751;52.236;5.178;2022-12-05T06:05:10;101762.06;;;4.03;100.00
58975;BME280;44751;52.236;5.178;2022-12-05T06:07:36;101767.28;;;4.04;100.00
58975;BME280;44751;52.236;5.178;2022-12-05T06:10:03;101759.97;;;3.95;100.00
58975;BME280;44751;52.236;5.178;2022-12-05T06:12:30;101767.88;;;3.96;100.00
58975;BME280;44751;52.236;5.178;2022-12-05T06:14:56;101778.63;;;4.08;100.00
58975;BME280;44751;52.236;5.178;2022-12-05T06:17:25;101772.09;;;4.12;100.00
58975;BME280;44751;52.236;5.178;2022-12-05T06:19:55;101769.00;;;4.05;100.00
58975;BME280;44751;52.236;5.178;2022-12-05T06:22:21;101765.88;;;4.11;100.00
58975;BME280;44751;52.236;5.178;2022-12-05T06:24:48;101778.91;;;4.16;100.00
58975;BME280;44751;52.236;5.178;2022-12-05T06:27:14;101781.56;;;4.16;100.00
58975;BME280;44751;52.236;5.178;2022-12-05T06:29:46;101781.56;;;4.16;100.00
58975;BME280;44751;52.236;5.178;2022-12-05T06:32:13;101782.53;;;4.15;100.00
58975;BME280;44751;52.236;5.178;2022-12-05T06:34:39;101780.31;;;4.09;100.00
58975;BME280;44751;52.236;5.178;2022-12-05T06:37:06;101775.38;;;4.16;100.00
58975;BME280;44751;52.236;5.178;2022-12-05T06:39:32;101784.47;;;4.13;100.00
58975;BME280;44751;52.236;5.178;2022-12-05T06:42:03;101779.63;;;4.18;100.00
58975;BME280;44751;52.236;5.178;2022-12-05T06:44:30;101781.78;;;4.13;100.00
58975;BME280;44751;52.236;5.178;2022-12-05T06:46:56;101784.75;;;4.21;100.00
58975;BME280;44751;52.236;5.178;2022-12-05T06:49:23;101788.72;;;4.16;100.00
58975;BME280;44751;52.236;5.178;2022-12-05T06:51:56;101780.72;;;4.16;100.00
58975;BME280;44751;52.236;5.178;2022-12-05T06:54:23;101783.88;;;4.21;100.00
58975;BME280;44751;52.236;5.178;2022-12-05T06:56:50;101784.41;;;4.26;100.00
58975;BME280;44751;52.236;5.178;2022-12-05T06:59:16;101782.41;;;4.17;100.00
58975;BME280;44751;52.236;5.178;2022-12-05T07:01:43;101792.44;;;4.26;100.00
58975;BME280;44751;52.236;5.178;2022-12-05T07:04:12;101792.59;;;4.11;100.00
58975;BME280;44751;52.236;5.178;2022-12-05T07:06:40;101796.63;;;4.17;100.00
58975;BME280;44751;52.236;5.178;2022-12-05T07:09:08;101798.72;;;4.25;100.00
58975;BME280;44751;52.236;5.178;2022-12-05T07:11:36;101797.50;;;4.18;100.00
58975;BME280;44751;52.236;5.178;2022-12-05T07:14:03;101800.66;;;4.23;100.00
58975;BME280;44751;52.236;5.178;2022-12-05T07:16:30;101804.06;;;4.25;100.00
58975;BME280;44751;52.236;5.178;2022-12-05T07:18:57;101806.63;;;4.26;100.00
58975;BME280;44751;52.236;5.178;2022-12-05T07:21:24;101805.91;;;4.24;100.00
58975;BME280;44751;52.236;5.178;2022-12-05T07:23:50;101803.22;;;4.24;100.00
58975;BME280;44751;52.236;5.178;2022-12-05T07:26:20;101814.19;;;4.33;100.00
58975;BME280;44751;52.236;5.178;2022-12-05T07:28:47;101812.34;;;4.33;100.00
58975;BME280;44751;52.236;5.178;2022-12-05T07:31:20;101814.63;;;4.26;100.00
58975;BME280;44751;52.236;5.178;2022-12-05T07:33:50;101807.25;;;4.30;100.00
58975;BME280;44751;52.236;5.178;2022-12-05T07:36:19;101815.88;;;4.34;100.00
58975;BME280;44751;52.236;5.178;2022-12-05T07:38:46;101815.03;;;4.33;100.00
58975;BME280;44751;52.236;5.178;2022-12-05T07:41:19;101818.44;;;4.35;100.00
58975;BME280;44751;52.236;5.178;2022-12-05T07:43:47;101813.22;;;4.34;100.00
58975;BME280;44751;52.236;5.178;2022-12-05T07:46:13;101825.59;;;4.35;100.00
58975;BME280;44751;52.236;5.178;2022-12-05T07:48:40;101813.22;;;4.34;100.00
58975;BME280;44751;52.236;5.178;2022-12-05T07:51:10;101818.94;;;4.41;100.00
58975;BME280;44751;52.236;5.178;2022-12-05T07:53:37;101818.13;;;4.40;100.00
58975;BME280;44751;52.236;5.178;2022-12-05T07:56:07;101828.28;;;4.35;100.00
58975;BME280;44751;52.236;5.178;2022-12-05T07:58:34;101822.94;;;4.35;100.00
58975;BME280;44751;52.236;5.178;2022-12-05T08:01:06;101830.28;;;4.44;100.00
58975;BME280;44751;52.236;5.178;2022-12-05T08:03:34;101837.94;;;4.49;100.00
58975;BME280;44751;52.236;5.178;2022-12-05T08:06:05;101828.72;;;4.53;100.00
58975;BME280;44751;52.236;5.178;2022-12-05T08:08:32;101830.44;;;4.54;100.00
58975;BME280;44751;52.236;5.178;2022-12-05T08:11:04;101820.31;;;4.46;100.00
58975;BME280;44751;52.236;5.178;2022-12-05T08:13:34;101831.47;;;4.40;100.00
58975;BME280;44751;52.236;5.178;2022-12-05T08:16:06;101828.34;;;4.46;100.00
58975;BME280;44751;52.236;5.178;2022-12-05T08:18:33;101838.69;;;4.51;100.00
58975;BME280;44751;52.236;5.178;2022-12-05T08:21:07;101831.50;;;4.51;100.00
58975;BME280;44751;52.236;5.178;2022-12-05T08:23:35;101837.72;;;4.52;100.00
58975;BME280;44751;52.236;5.178;2022-12-05T08:26:16;101837.38;;;4.57;100.00
58975;BME280;44751;52.236;5.178;2022-12-05T08:28:44;101842.19;;;4.51;100.00
58975;BME280;44751;52.236;5.178;2022-12-05T08:31:14;101849.66;;;4.59;100.00
58975;BME280;44751;52.236;5.178;2022-12-05T08:33:41;101854.41;;;4.67;100.00
58975;BME280;44751;52.236;5.178;2022-12-05T08:36:10;101842.84;;;4.55;100.00
58975;BME280;44751;52.236;5.178;2022-12-05T08:38:41;101851.97;;;4.64;100.00
58975;BME280;44751;52.236;5.178;2022-12-05T08:41:10;101849.53;;;4.61;100.00
58975;BME280;44751;52.236;5.178;2022-12-05T08:43:37;101852.72;;;4.66;100.00
58975;BME280;44751;52.236;5.178;2022-12-05T08:46:04;101853.56;;;4.67;100.00
58975;BME280;44751;52.236;5.178;2022-12-05T08:48:33;101846.75;;;4.62;100.00
58975;BME280;44751;52.236;5.178;2022-12-05T08:51:05;101849.44;;;4.62;100.00
58975;BME280;44751;52.236;5.178;2022-12-05T08:53:33;101847.31;;;4.55;100.00
58975;BME280;44751;52.236;5.178;2022-12-05T08:56:04;101853.69;;;4.65;100.00
58975;BME280;44751;52.236;5.178;2022-12-05T08:58:36;101851.00;;;4.65;100.00
58975;BME280;44751;52.236;5.178;2022-12-05T09:01:13;101863.41;;;4.66;100.00
58975;BME280;44751;52.236;5.178;2022-12-05T09:03:41;101865.84;;;4.69;100.00
58975;BME280;44751;52.236;5.178;2022-12-05T09:06:19;101865.25;;;4.77;100.00
58975;BME280;44751;52.236;5.178;2022-12-05T09:08:47;101852.59;;;4.68;100.00
58975;BME280;44751;52.236;5.178;2022-12-05T09:11:19;101860.28;;;4.72;100.00
58975;BME280;44751;52.236;5.178;2022-12-05T09:13:48;101861.88;;;4.75;100.00
58975;BME280;44751;52.236;5.178;2022-12-05T09:16:18;101862.25;;;4.82;100.00
58975;BME280;44751;52.236;5.178;2022-12-05T09:18:47;101866.03;;;4.79;100.00
58975;BME280;44751;52.236;5.178;2022-12-05T09:21:17;101866.13;;;4.77;100.00
58975;BME280;44751;52.236;5.178;2022-12-05T09:23:49;101873.66;;;4.72;100.00
58975;BME280;44751;52.236;5.178;2022-12-05T09:26:18;101879.50;;;4.77;100.00
58975;BME280;44751;52.236;5.178;2022-12-05T09:28:46;101882.66;;;4.83;100.00
58975;BME280;44751;52.236;5.178;2022-12-05T09:31:17;101889.00;;;4.82;100.00
58975;BME280;44751;52.236;5.178;2022-12-05T09:33:46;101875.97;;;4.77;100.00
58975;BME280;44751;52.236;5.178;2022-12-05T09:36:19;101892.06;;;4.88;100.00
58975;BME280;44751;52.236;5.178;2022-12-05T09:38:47;101883.91;;;4.90;100.00
58975;BME280;44751;52.236;5.178;2022-12-05T09:47:45;101897.09;;;5.04;100.00
58975;BME280;44751;52.236;5.178;2022-12-05T09:50:20;101898.41;;;4.99;100.00
58975;BME280;44751;52.236;5.178;2022-12-05T10:10:20;101895.34;;;4.92;100.00
58975;BME280;44751;52.236;5.178;2022-12-05T10:13:12;101895.00;;;4.97;100.00
58975;BME280;44751;52.236;5.178;2022-12-05T10:15:43;101896.47;;;5.01;100.00
58975;BME280;44751;52.236;5.178;2022-12-05T10:18:39;101898.41;;;4.99;100.00
58975;BME280;44751;52.236;5.178;2022-12-05T10:21:15;101897.09;;;5.04;100.00
58975;BME280;44751;52.236;5.178;2022-12-05T10:24:01;101897.81;;;5.07;100.00
58975;BME280;44751;52.236;5.178;2022-12-05T10:26:58;101890.28;;;5.12;100.00
58975;BME280;44751;52.236;5.178;2022-12-05T10:29:34;101882.75;;;5.06;100.00
58975;BME280;44751;52.236;5.178;2022-12-05T10:32:21;101881.28;;;5.01;100.00
58975;BME280;44751;52.236;5.178;2022-12-05T10:34:53;101889.19;;;5.03;100.00
58975;BME280;44751;52.236;5.178;2022-12-05T10:37:25;101882.38;;;4.99;100.00
58975;BME280;44751;52.236;5.178;2022-12-05T10:39:59;101878.25;;;5.06;100.00
58975;BME280;44751;52.236;5.178;2022-12-05T10:42:31;101880.06;;;5.06;100.00
58975;BME280;44751;52.236;5.178;2022-12-05T10:45:05;101879.72;;;5.10;100.00
58975;BME280;44751;52.236;5.178;2022-12-05T10:47:32;101879.13;;;5.18;100.00
58975;BME280;44751;52.236;5.178;2022-12-05T10:50:50;101865.78;;;5.29;100.00
58975;BME280;44751;52.236;5.178;2022-12-05T10:52:52;101870.63;;;5.13;100.00
58975;BME280;44751;52.236;5.178;2022-12-05T10:55:28;101879.59;;;5.12;100.00
58975;BME280;44751;52.236;5.178;2022-12-05T10:58:10;101880.00;;;5.19;100.00
58975;BME280;44751;52.236;5.178;2022-12-05T11:00:37;101875.72;;;5.16;100.00
58975;BME280;44751;52.236;5.178;2022-12-05T11:03:25;101879.28;;;5.28;100.00
58975;BME280;44751;52.236;5.178;2022-12-05T11:05:55;101880.00;;;5.19;100.00
58975;BME280;44751;52.236;5.178;2022-12-05T11:08:24;101872.53;;;5.11;100.00
58975;BME280;44751;52.236;5.178;2022-12-05T11:13:31;101877.31;;;5.19;100.00
58975;BME280;44751;52.236;5.178;2022-12-05T11:15:58;101873.88;;;5.05;100.00
58975;BME280;44751;52.236;5.178;2022-12-05T11:18:30;101874.00;;;5.15;100.00
58975;BME280;44751;52.236;5.178;2022-12-05T11:21:15;101871.22;;;5.16;100.00
58975;BME280;44751;52.236;5.178;2022-12-05T11:23:44;101869.78;;;5.24;100.00
58975;BME280;44751;52.236;5.178;2022-12-05T11:26:33;101871.03;;;5.31;100.00
58975;BME280;44751;52.236;5.178;2022-12-05T11:29:00;101876.75;;;5.38;100.00
58975;BME280;44751;52.236;5.178;2022-12-05T11:31:35;101862.50;;;5.37;100.00
58975;BME280;44751;52.236;5.178;2022-12-05T11:34:20;101869.41;;;5.28;100.00
58975;BME280;44751;52.236;5.178;2022-12-05T11:36:54;101863.81;;;5.32;100.00
58975;BME280;44751;52.236;5.178;2022-12-05T11:39:23;101874.41;;;5.33;100.00
58975;BME280;44751;52.236;5.178;2022-12-05T11:48:11;101876.59;;;5.28;100.00
58975;BME280;44751;52.236;5.178;2022-12-05T11:54:03;101877.19;;;5.20;100.00
58975;BME280;44751;52.236;5.178;2022-12-05T11:56:37;101871.56;;;5.12;100.00
58975;BME280;44751;52.236;5.178;2022-12-05T11:59:29;101872.66;;;5.09;100.00
58975;BME280;44751;52.236;5.178;2022-12-05T12:02:20;101870.47;;;5.14;100.00
58975;BME280;44751;52.236;5.178;2022-12-05T12:04:53;101871.81;;;5.20;100.00
58975;BME280;44751;52.236;5.178;2022-12-05T12:07:32;101870.88;;;5.21;100.00
58975;BME280;44751;52.236;5.178;2022-12-05T12:10:17;101872.19;;;5.15;100.00
58975;BME280;44751;52.236;5.178;2022-12-05T12:12:59;101868.91;;;5.12;100.00
58975;BME280;44751;52.236;5.178;2022-12-05T12:16:02;101868.91;;;5.23;100.00
58975;BME280;44751;52.236;5.178;2022-12-05T12:26:55;101867.72;;;5.39;100.00
58975;BME280;44751;52.236;5.178;2022-12-05T12:32:56;101859.34;;;5.43;100.00
58975;BME280;44751;52.236;5.178;2022-12-05T12:35:30;101857.91;;;5.39;100.00
58975;BME280;44751;52.236;5.178;2022-12-05T12:40:47;101857.78;;;5.41;100.00
58975;BME280;44751;52.236;5.178;2022-12-05T12:44:01;101851.69;;;5.39;100.00
58975;BME280;44751;52.236;5.178;2022-12-05T12:52:19;101852.78;;;5.36;100.00
58975;BME280;44751;52.236;5.178;2022-12-05T13:00:34;101844.84;;;5.23;100.00
58975;BME280;44751;52.236;5.178;2022-12-05T13:03:11;101846.69;;;5.23;100.00
58975;BME280;44751;52.236;5.178;2022-12-05T13:05:57;101835.69;;;5.14;100.00
58975;BME280;44751;52.236;5.178;2022-12-05T13:08:52;101836.81;;;5.23;100.00
58975;BME280;44751;52.236;5.178;2022-12-05T13:11:21;101845.31;;;5.28;100.00
58975;BME280;44751;52.236;5.178;2022-12-05T13:13:51;101836.13;;;5.33;100.00
58975;BME280;44751;52.236;5.178;2022-12-05T13:16:42;101840.13;;;5.27;100.00
58975;BME280;44751;52.236;5.178;2022-12-05T13:19:40;101841.19;;;5.36;100.00
58975;BME280;44751;52.236;5.178;2022-12-05T13:22:10;101847.16;;;5.28;100.00
58975;BME280;44751;52.236;5.178;2022-12-05T13:24:40;101843.16;;;5.34;100.00
58975;BME280;44751;52.236;5.178;2022-12-05T13:27:17;101848.25;;;5.25;100.00
58975;BME280;44751;52.236;5.178;2022-12-05T13:29:59;101846.06;;;5.19;100.00
58975;BME280;44751;52.236;5.178;2022-12-05T13:34:56;101848.97;;;5.16;100.00
58975;BME280;44751;52.236;5.178;2022-12-05T13:37:28;101848.59;;;5.21;100.00
58975;BME280;44751;52.236;5.178;2022-12-05T13:40:28;101843.97;;;5.11;100.00
58975;BME280;44751;52.236;5.178;2022-12-05T13:43:19;101851.63;;;5.16;100.00
58975;BME280;44751;52.236;5.178;2022-12-05T13:48:30;101853.09;;;5.20;100.00
58975;BME280;44751;52.236;5.178;2022-12-05T13:51:23;101861.66;;;5.25;100.00
58975;BME280;44751;52.236;5.178;2022-12-05T13:54:23;101852.25;;;5.20;100.00
58975;BME280;44751;52.236;5.178;2022-12-05T13:56:53;101844.81;;;5.12;100.00
58975;BME280;44751;52.236;5.178;2022-12-05T14:07:58;101851.00;;;5.01;100.00
58975;BME280;44751;52.236;5.178;2022-12-05T14:15:49;101854.00;;;4.96;100.00
58975;BME280;44751;52.236;5.178;2022-12-05T14:18:38;101847.59;;;4.99;100.00
58975;BME280;44751;52.236;5.178;2022-12-05T14:21:41;101851.88;;;5.01;100.00
58975;BME280;44751;52.236;5.178;2022-12-05T14:24:23;101850.00;;;4.90;100.00
58975;BME280;44751;52.236;5.178;2022-12-05T14:32:42;101854.75;;;4.98;100.00
58975;BME280;44751;52.236;5.178;2022-12-05T14:35:19;101858.53;;;4.96;100.00
58975;BME280;44751;52.236;5.178;2022-12-05T14:37:55;101856.09;;;4.93;100.00
58975;BME280;44751;52.236;5.178;2022-12-05T14:42:58;101860.97;;;4.99;100.00
58975;BME280;44751;52.236;5.178;2022-12-05T14:45:31;101860.13;;;4.98;100.00
58975;BME280;44751;52.236;5.178;2022-12-05T14:48:24;101861.44;;;4.93;100.00
58975;BME280;44751;52.236;5.178;2022-12-05T14:50:56;101858.25;;;4.87;100.00
58975;BME280;44751;52.236;5.178;2022-12-05T14:53:28;101866.06;;;4.90;100.00
58975;BME280;44751;52.236;5.178;2022-12-05T14:56:17;101863.13;;;4.94;100.00
58975;BME280;44751;52.236;5.178;2022-12-05T14:59:01;101868.72;;;4.90;100.00
58975;BME280;44751;52.236;5.178;2022-12-05T15:01:38;101873.34;;;4.88;100.00
58975;BME280;44751;52.236;5.178;2022-12-05T15:09:48;101885.50;;;4.93;100.00
58975;BME280;44751;52.236;5.178;2022-12-05T15:12:26;101868.59;;;4.92;100.00
58975;BME280;44751;52.236;5.178;2022-12-05T15:17:59;101888.28;;;4.91;100.00
58975;BME280;44751;52.236;5.178;2022-12-05T15:20:36;101896.31;;;4.91;100.00
58975;BME280;44751;52.236;5.178;2022-12-05T15:23:45;101890.50;;;4.97;100.00
58975;BME280;44751;52.236;5.178;2022-12-05T15:28:38;101884.28;;;4.97;100.00
58975;BME280;44751;52.236;5.178;2022-12-05T15:31:05;101889.19;;;5.03;100.00
58975;BME280;44751;52.236;5.178;2022-12-05T15:33:34;101889.19;;;5.03;100.00
58975;BME280;44751;52.236;5.178;2022-12-05T15:36:01;101888.44;;;5.01;100.00
58975;BME280;44751;52.236;5.178;2022-12-05T15:38:29;101891.72;;;4.93;100.00
58975;BME280;44751;52.236;5.178;2022-12-05T15:40:57;101896.69;;;4.98;100.00
58975;BME280;44751;52.236;5.178;2022-12-05T15:43:32;101899.13;;;5.01;100.00